sensor_id;sensor_type;location;lat;lon;timestamp;pressure;altitude;pressure_sealevel;temperature;humidity
56400;BME280;42298;53.638;9.876;2023-03-25T00:01:31;99727.66;;;12.19;70.37
56400;BME280;42298;53.638;9.876;2023-03-25T00:03:59;99731.91;;;12.16;70.77
56400;BME280;42298;53.638;9.876;2023-03-25T00:06:26;99721.78;;;12.08;71.44
56400;BME280;42298;53.638;9.876;2023-03-25T00:08:51;99703.03;;;11.90;70.84
56400;BME280;42298;53.638;9.876;2023-03-25T00:11:17;99703.75;;;11.99;71.39
56400;BME280;42298;53.638;9.876;2023-03-25T00:13:42;99712.59;;;12.04;71.06
56400;BME280;42298;53.638;9.876;2023-03-25T00:16:08;99691.41;;;11.96;70.54
56400;BME280;42298;53.638;9.876;2023-03-25T00:18:35;99704.53;;;11.99;70.36
56400;BME280;42298;53.638;9.876;2023-03-25T00:21:03;99681.31;;;11.88;70.23
56400;BME280;42298;53.638;9.876;2023-03-25T00:23:30;99721.56;;;12.13;70.58
56400;BME280;42298;53.638;9.876;2023-03-25T00:25:56;99681.19;;;11.85;70.35
56400;BME280;42298;53.638;9.876;2023-03-25T00:28:28;99721.22;;;12.03;70.35
56400;BME280;42298;53.638;9.876;2023-03-25T00:31:01;99682.09;;;11.77;70.33
56400;BME280;42298;53.638;9.876;2023-03-25T00:33:27;99683.22;;;11.64;70.79
56400;BME280;42298;53.638;9.876;2023-03-25T00:35:53;99682.06;;;11.65;70.77
56400;BME280;42298;53.638;9.876;2023-03-25T00:38:33;99693.47;;;11.87;70.10
56400;BME280;42298;53.638;9.876;2023-03-25T00:43:34;99696.13;;;11.84;70.25
56400;BME280;42298;53.638;9.876;2023-03-25T00:46:00;99691.53;;;11.76;70.54
56400;BME280;42298;53.638;9.876;2023-03-25T00:48:25;99681.31;;;11.76;70.05
56400;BME280;42298;53.638;9.876;2023-03-25T00:50:51;99704.97;;;11.89;70.30
56400;BME280;42298;53.638;9.876;2023-03-25T00:53:16;99713.59;;;11.88;70.50
56400;BME280;42298;53.638;9.876;2023-03-25T00:55:42;99666.56;;;11.72;70.08
56400;BME280;42298;53.638;9.876;2023-03-25T00:58:07;99689.00;;;11.83;70.38
56400;BME280;42298;53.638;9.876;2023-03-25T01:00:32;99673.59;;;11.82;70.21
56400;BME280;42298;53.638;9.876;2023-03-25T01:02:58;99673.47;;;11.78;70.12
56400;BME280;42298;53.638;9.876;2023-03-25T01:05:27;99674.16;;;11.75;70.39
56400;BME280;42298;53.638;9.876;2023-03-25T01:07:53;99692.34;;;11.88;70.47
56400;BME280;42298;53.638;9.876;2023-03-25T01:10:19;99664.16;;;11.83;70.34
56400;BME280;42298;53.638;9.876;2023-03-25T01:12:45;99675.19;;;11.95;70.18
56400;BME280;42298;53.638;9.876;2023-03-25T01:15:11;99666.13;;;11.82;70.11
56400;BME280;42298;53.638;9.876;2023-03-25T01:17:36;99666.84;;;11.91;70.05
56400;BME280;42298;53.638;9.876;2023-03-25T01:20:02;99669.13;;;11.89;69.94
56400;BME280;42298;53.638;9.876;2023-03-25T01:22:30;99700.84;;;12.19;70.18
56400;BME280;42298;53.638;9.876;2023-03-25T01:24:56;99704.09;;;12.21;70.01
56400;BME280;42298;53.638;9.876;2023-03-25T01:27:21;99673.94;;;12.04;69.96
56400;BME280;42298;53.638;9.876;2023-03-25T01:29:48;99653.72;;;11.88;70.20
56400;BME280;42298;53.638;9.876;2023-03-25T01:32:14;99693.97;;;12.13;70.03
56400;BME280;42298;53.638;9.876;2023-03-25T01:34:40;99662.00;;;12.12;69.61
56400;BME280;42298;53.638;9.876;2023-03-25T01:37:08;99648.91;;;12.09;69.91
56400;BME280;42298;53.638;9.876;2023-03-25T01:39:34;99670.50;;;12.19;69.53
56400;BME280;42298;53.638;9.876;2023-03-25T01:42:00;99636.81;;;12.14;69.31
56400;BME280;42298;53.638;9.876;2023-03-25T01:46:52;99661.38;;;12.31;68.98
56400;BME280;42298;53.638;9.876;2023-03-25T01:49:20;99658.41;;;12.36;68.72
56400;BME280;42298;53.638;9.876;2023-03-25T01:51:50;99632.06;;;12.26;68.03
56400;BME280;42298;53.638;9.876;2023-03-25T01:54:17;99679.50;;;12.56;68.45
56400;BME280;42298;53.638;9.876;2023-03-25T01:56:44;99637.34;;;12.31;68.54
56400;BME280;42298;53.638;9.876;2023-03-25T01:59:12;99635.75;;;12.30;68.43
56400;BME280;42298;53.638;9.876;2023-03-25T02:01:40;99648.38;;;12.43;68.31
56400;BME280;42298;53.638;9.876;2023-03-25T02:04:05;99656.41;;;12.48;68.20
56400;BME280;42298;53.638;9.876;2023-03-25T02:09:04;99626.31;;;12.31;68.41
56400;BME280;42298;53.638;9.876;2023-03-25T02:11:31;99642.63;;;12.36;68.24
56400;BME280;42298;53.638;9.876;2023-03-25T02:14:01;99658.03;;;12.49;68.03
56400;BME280;42298;53.638;9.876;2023-03-25T02:19:26;99658.59;;;12.43;68.35
56400;BME280;42298;53.638;9.876;2023-03-25T02:22:43;99649.41;;;12.51;67.91
56400;BME280;42298;53.638;9.876;2023-03-25T02:28:35;99643.75;;;12.47;68.16
56400;BME280;42298;53.638;9.876;2023-03-25T02:39:26;99641.91;;;12.39;67.53
56400;BME280;42298;53.638;9.876;2023-03-25T02:44:39;99616.19;;;12.23;67.84
56400;BME280;42298;53.638;9.876;2023-03-25T02:47:10;99602.75;;;12.22;68.08
56400;BME280;42298;53.638;9.876;2023-03-25T02:49:43;99627.47;;;12.30;68.18
56400;BME280;42298;53.638;9.876;2023-03-25T02:52:23;99623.28;;;12.36;67.63
56400;BME280;42298;53.638;9.876;2023-03-25T02:54:51;99630.44;;;12.37;68.12
56400;BME280;42298;53.638;9.876;2023-03-25T02:57:23;99609.97;;;12.26;67.56
56400;BME280;42298;53.638;9.876;2023-03-25T02:59:50;99591.50;;;12.15;67.63
56400;BME280;42298;53.638;9.876;2023-03-25T03:02:20;99623.28;;;12.36;67.62
56400;BME280;42298;53.638;9.876;2023-03-25T03:04:53;99584.59;;;12.21;67.29
56400;BME280;42298;53.638;9.876;2023-03-25T03:07:29;99585.06;;;12.23;67.54
56400;BME280;42298;53.638;9.876;2023-03-25T03:10:17;99622.25;;;12.41;67.24
56400;BME280;42298;53.638;9.876;2023-03-25T03:18:41;99622.03;;;12.34;67.44
56400;BME280;42298;53.638;9.876;2023-03-25T03:21:14;99610.19;;;12.33;67.38
56400;BME280;42298;53.638;9.876;2023-03-25T03:23:50;99608.91;;;12.43;67.04
56400;BME280;42298;53.638;9.876;2023-03-25T03:26:42;99612.16;;;12.33;66.87
56400;BME280;42298;53.638;9.876;2023-03-25T03:29:17;99590.25;;;12.12;66.94
56400;BME280;42298;53.638;9.876;2023-03-25T03:32:06;99593.44;;;12.14;67.47
56400;BME280;42298;53.638;9.876;2023-03-25T03:37:12;99603.13;;;12.08;67.54
56400;BME280;42298;53.638;9.876;2023-03-25T03:39:41;99600.47;;;12.12;67.32
56400;BME280;42298;53.638;9.876;2023-03-25T03:42:17;99596.53;;;12.25;67.42
56400;BME280;42298;53.638;9.876;2023-03-25T03:44:54;99620.19;;;12.38;67.16
56400;BME280;42298;53.638;9.876;2023-03-25T03:47:24;99605.81;;;12.32;66.84
56400;BME280;42298;53.638;9.876;2023-03-25T03:49:56;99608.16;;;12.30;66.97
56400;BME280;42298;53.638;9.876;2023-03-25T03:52:30;99578.88;;;12.14;66.54
56400;BME280;42298;53.638;9.876;2023-03-25T03:55:04;99605.16;;;12.23;66.71
56400;BME280;42298;53.638;9.876;2023-03-25T03:57:40;99609.78;;;12.19;67.06
56400;BME280;42298;53.638;9.876;2023-03-25T04:00:29;99588.19;;;12.09;67.14
56400;BME280;42298;53.638;9.876;2023-03-25T04:03:01;99576.81;;;11.99;66.91
56400;BME280;42298;53.638;9.876;2023-03-25T04:05:30;99573.03;;;11.91;67.40
56400;BME280;42298;53.638;9.876;2023-03-25T04:08:17;99574.41;;;11.97;67.62
56400;BME280;42298;53.638;9.876;2023-03-25T04:10:51;99613.09;;;12.13;68.12
56400;BME280;42298;53.638;9.876;2023-03-25T04:13:25;99586.22;;;11.98;68.61
56400;BME280;42298;53.638;9.876;2023-03-25T04:15:53;99593.00;;;12.12;68.51
56400;BME280;42298;53.638;9.876;2023-03-25T04:18:21;99591.88;;;12.01;68.62
56400;BME280;42298;53.638;9.876;2023-03-25T04:20:47;99606.13;;;12.15;68.03
56400;BME280;42298;53.638;9.876;2023-03-25T04:23:13;99560.16;;;11.95;68.50
56400;BME280;42298;53.638;9.876;2023-03-25T04:25:43;99589.09;;;12.13;67.85
56400;BME280;42298;53.638;9.876;2023-03-25T04:28:11;99576.00;;;11.98;68.07
56400;BME280;42298;53.638;9.876;2023-03-25T04:30:38;99585.19;;;12.02;68.00
56400;BME280;42298;53.638;9.876;2023-03-25T04:33:05;99593.13;;;12.04;67.70
56400;BME280;42298;53.638;9.876;2023-03-25T04:35:31;99595.53;;;12.05;68.26
56400;BME280;42298;53.638;9.876;2023-03-25T04:37:58;99612.34;;;11.88;68.85
56400;BME280;42298;53.638;9.876;2023-03-25T04:40:24;99622.22;;;11.89;70.11
56400;BME280;42298;53.638;9.876;2023-03-25T04:42:50;99627.94;;;11.72;70.41
56400;BME280;42298;53.638;9.876;2023-03-25T04:45:18;99599.22;;;11.61;70.45
56400;BME280;42298;53.638;9.876;2023-03-25T04:47:45;99600.25;;;11.56;71.20
56400;BME280;42298;53.638;9.876;2023-03-25T04:50:24;99598.19;;;11.53;70.93
56400;BME280;42298;53.638;9.876;2023-03-25T04:52:50;99638.31;;;11.75;71.39
56400;BME280;42298;53.638;9.876;2023-03-25T04:55:17;99603.09;;;11.60;71.79
56400;BME280;42298;53.638;9.876;2023-03-25T04:57:47;99608.44;;;11.65;71.57
56400;BME280;42298;53.638;9.876;2023-03-25T05:00:15;99605.31;;;11.67;72.52
56400;BME280;42298;53.638;9.876;2023-03-25T05:02:45;99607.97;;;11.75;72.24
56400;BME280;42298;53.638;9.876;2023-03-25T05:05:12;99595.34;;;11.74;72.44
56400;BME280;42298;53.638;9.876;2023-03-25T05:07:45;99595.09;;;11.67;72.23
56400;BME280;42298;53.638;9.876;2023-03-25T05:10:12;99610.84;;;11.79;72.54
56400;BME280;42298;53.638;9.876;2023-03-25T05:12:38;99609.69;;;11.80;72.69
56400;BME280;42298;53.638;9.876;2023-03-25T05:15:04;99640.63;;;11.97;72.32
56400;BME280;42298;53.638;9.876;2023-03-25T05:17:29;99614.41;;;11.79;72.92
56400;BME280;42298;53.638;9.876;2023-03-25T05:19:55;99630.03;;;11.87;72.96
56400;BME280;42298;53.638;9.876;2023-03-25T05:22:22;99621.66;;;11.72;72.85
56400;BME280;42298;53.638;9.876;2023-03-25T05:24:47;99622.56;;;11.76;73.02
56400;BME280;42298;53.638;9.876;2023-03-25T05:27:13;99625.09;;;11.69;73.23
56400;BME280;42298;53.638;9.876;2023-03-25T05:29:38;99593.91;;;11.44;72.94
56400;BME280;42298;53.638;9.876;2023-03-25T05:32:04;99596.19;;;11.42;73.28
56400;BME280;42298;53.638;9.876;2023-03-25T05:34:29;99599.41;;;11.44;73.16
56400;BME280;42298;53.638;9.876;2023-03-25T05:36:55;99594.94;;;11.39;73.56
56400;BME280;42298;53.638;9.876;2023-03-25T05:39:20;99601.00;;;11.45;73.81
56400;BME280;42298;53.638;9.876;2023-03-25T05:41:46;99603.34;;;11.43;73.48
56400;BME280;42298;53.638;9.876;2023-03-25T05:44:11;99598.16;;;11.41;73.10
56400;BME280;42298;53.638;9.876;2023-03-25T05:46:39;99595.41;;;11.41;73.44
56400;BME280;42298;53.638;9.876;2023-03-25T05:49:05;99609.97;;;11.54;72.81
56400;BME280;42298;53.638;9.876;2023-03-25T05:51:32;99622.75;;;11.58;73.20
56400;BME280;42298;53.638;9.876;2023-03-25T05:54:02;99639.22;;;11.67;72.83
56400;BME280;42298;53.638;9.876;2023-03-25T05:56:27;99623.00;;;11.53;72.62
56400;BME280;42298;53.638;9.876;2023-03-25T05:58:54;99637.00;;;11.60;73.00
56400;BME280;42298;53.638;9.876;2023-03-25T06:01:21;99613.91;;;11.53;72.30
56400;BME280;42298;53.638;9.876;2023-03-25T06:03:47;99645.31;;;11.73;72.89
56400;BME280;42298;53.638;9.876;2023-03-25T06:06:13;99642.00;;;11.79;72.43
56400;BME280;42298;53.638;9.876;2023-03-25T06:08:45;99623.47;;;11.68;72.52
56400;BME280;42298;53.638;9.876;2023-03-25T06:11:11;99635.78;;;11.82;71.92
56400;BME280;42298;53.638;9.876;2023-03-25T06:13:41;99645.66;;;11.95;72.13
56400;BME280;42298;53.638;9.876;2023-03-25T06:16:13;99649.94;;;11.93;71.77
56400;BME280;42298;53.638;9.876;2023-03-25T06:18:43;99648.66;;;11.90;71.51
56400;BME280;42298;53.638;9.876;2023-03-25T06:21:08;99636.22;;;11.84;71.60
56400;BME280;42298;53.638;9.876;2023-03-25T06:23:33;99628.44;;;11.74;71.33
56400;BME280;42298;53.638;9.876;2023-03-25T06:26:01;99624.06;;;11.73;71.27
56400;BME280;42298;53.638;9.876;2023-03-25T06:28:28;99652.44;;;11.86;71.41
56400;BME280;42298;53.638;9.876;2023-03-25T06:30:53;99650.28;;;11.91;71.73
56400;BME280;42298;53.638;9.876;2023-03-25T06:33:19;99627.53;;;11.82;71.24
56400;BME280;42298;53.638;9.876;2023-03-25T06:35:46;99627.75;;;11.89;71.12
56400;BME280;42298;53.638;9.876;2023-03-25T06:38:18;99620.50;;;11.85;71.03
56400;BME280;42298;53.638;9.876;2023-03-25T06:40:44;99627.03;;;11.92;71.28
56400;BME280;42298;53.638;9.876;2023-03-25T06:43:12;99633.47;;;11.96;70.93
56400;BME280;42298;53.638;9.876;2023-03-25T06:45:38;99640.84;;;12.16;71.24
56400;BME280;42298;53.638;9.876;2023-03-25T06:48:04;99661.72;;;12.41;69.99
56400;BME280;42298;53.638;9.876;2023-03-25T06:50:30;99660.38;;;12.75;70.12
56400;BME280;42298;53.638;9.876;2023-03-25T06:52:56;99622.69;;;12.55;69.32
56400;BME280;42298;53.638;9.876;2023-03-25T06:55:21;99647.94;;;12.81;68.56
56400;BME280;42298;53.638;9.876;2023-03-25T06:57:46;99628.91;;;12.91;68.20
56400;BME280;42298;53.638;9.876;2023-03-25T07:00:12;99662.94;;;13.07;67.83
56400;BME280;42298;53.638;9.876;2023-03-25T07:02:38;99628.94;;;13.07;68.03
56400;BME280;42298;53.638;9.876;2023-03-25T07:05:04;99631.63;;;13.47;67.12
56400;BME280;42298;53.638;9.876;2023-03-25T07:07:30;99626.97;;;13.51;65.11
56400;BME280;42298;53.638;9.876;2023-03-25T07:09:55;99646.31;;;13.82;65.29
56400;BME280;42298;53.638;9.876;2023-03-25T07:12:22;99635.47;;;13.89;64.16
56400;BME280;42298;53.638;9.876;2023-03-25T07:14:53;99639.72;;;14.02;66.17
56400;BME280;42298;53.638;9.876;2023-03-25T07:17:20;99669.28;;;13.98;65.09
56400;BME280;42298;53.638;9.876;2023-03-25T07:19:45;99658.47;;;13.93;65.56
56400;BME280;42298;53.638;9.876;2023-03-25T07:22:11;99652.94;;;13.93;64.87
56400;BME280;42298;53.638;9.876;2023-03-25T07:24:36;99667.13;;;13.76;63.95
56400;BME280;42298;53.638;9.876;2023-03-25T07:27:01;99644.53;;;13.42;66.03
56400;BME280;42298;53.638;9.876;2023-03-25T07:29:27;99642.47;;;13.24;66.40
56400;BME280;42298;53.638;9.876;2023-03-25T07:31:54;99648.00;;;13.24;65.70
56400;BME280;42298;53.638;9.876;2023-03-25T07:34:20;99656.88;;;13.17;66.17
56400;BME280;42298;53.638;9.876;2023-03-25T07:36:45;99632.78;;;12.90;66.06
56400;BME280;42298;53.638;9.876;2023-03-25T07:39:10;99639.28;;;12.82;66.96
56400;BME280;42298;53.638;9.876;2023-03-25T07:41:35;99635.88;;;12.73;66.82
56400;BME280;42298;53.638;9.876;2023-03-25T07:44:01;99649.75;;;12.77;67.30
56400;BME280;42298;53.638;9.876;2023-03-25T07:46:26;99641.13;;;12.78;67.93
56400;BME280;42298;53.638;9.876;2023-03-25T07:48:51;99652.13;;;12.90;66.88
56400;BME280;42298;53.638;9.876;2023-03-25T07:51:17;99645.59;;;12.83;67.16
56400;BME280;42298;53.638;9.876;2023-03-25T07:53:42;99669.88;;;13.01;67.81
56400;BME280;42298;53.638;9.876;2023-03-25T07:56:11;99635.56;;;12.90;68.15
56400;BME280;42298;53.638;9.876;2023-03-25T07:58:36;99629.72;;;12.80;67.53
56400;BME280;42298;53.638;9.876;2023-03-25T08:01:04;99647.94;;;12.81;67.64
56400;BME280;42298;53.638;9.876;2023-03-25T08:03:29;99652.47;;;12.89;67.21
56400;BME280;42298;53.638;9.876;2023-03-25T08:05:59;99647.06;;;13.04;67.75
56400;BME280;42298;53.638;9.876;2023-03-25T08:08:24;99641.72;;;13.11;67.35
56400;BME280;42298;53.638;9.876;2023-03-25T08:10:50;99679.09;;;13.21;67.19
56400;BME280;42298;53.638;9.876;2023-03-25T08:13:15;99655.72;;;12.91;68.18
56400;BME280;42298;53.638;9.876;2023-03-25T08:15:40;99683.63;;;13.13;68.63
56400;BME280;42298;53.638;9.876;2023-03-25T08:18:06;99666.50;;;13.08;69.15
56400;BME280;42298;53.638;9.876;2023-03-25T08:20:35;99661.41;;;13.10;69.01
56400;BME280;42298;53.638;9.876;2023-03-25T08:23:00;99649.47;;;13.06;70.46
56400;BME280;42298;53.638;9.876;2023-03-25T08:25:27;99685.75;;;13.32;69.66
56400;BME280;42298;53.638;9.876;2023-03-25T08:27:53;99690.19;;;13.36;68.82
56400;BME280;42298;53.638;9.876;2023-03-25T08:30:19;99652.72;;;13.23;68.63
56400;BME280;42298;53.638;9.876;2023-03-25T08:32:45;99664.63;;;13.12;68.28
56400;BME280;42298;53.638;9.876;2023-03-25T08:35:11;99676.94;;;13.42;68.40
56400;BME280;42298;53.638;9.876;2023-03-25T08:37:38;99647.88;;;13.20;67.41
56400;BME280;42298;53.638;9.876;2023-03-25T08:40:04;99647.94;;;13.36;68.72
56400;BME280;42298;53.638;9.876;2023-03-25T08:42:34;99664.00;;;13.46;67.34
56400;BME280;42298;53.638;9.876;2023-03-25T08:44:59;99661.31;;;13.50;67.75
56400;BME280;42298;53.638;9.876;2023-03-25T08:47:25;99675.50;;;13.48;66.19
56400;BME280;42298;53.638;9.876;2023-03-25T08:49:50;99650.69;;;13.36;67.30
56400;BME280;42298;53.638;9.876;2023-03-25T08:52:16;99686.94;;;13.47;66.48
56400;BME280;42298;53.638;9.876;2023-03-25T08:54:42;99672.72;;;13.32;66.82
56400;BME280;42298;53.638;9.876;2023-03-25T08:57:07;99668.06;;;13.21;66.54
56400;BME280;42298;53.638;9.876;2023-03-25T08:59:32;99677.34;;;13.01;67.15
56400;BME280;42298;53.638;9.876;2023-03-25T09:01:58;99696.69;;;13.01;68.34
56400;BME280;42298;53.638;9.876;2023-03-25T09:04:23;99661.03;;;12.84;68.28
56400;BME280;42298;53.638;9.876;2023-03-25T09:06:49;99659.06;;;12.45;69.02
56400;BME280;42298;53.638;9.876;2023-03-25T09:09:15;99694.81;;;12.65;69.22
56400;BME280;42298;53.638;9.876;2023-03-25T09:11:40;99708.41;;;12.70;68.40
56400;BME280;42298;53.638;9.876;2023-03-25T09:14:05;99675.50;;;12.53;68.06
56400;BME280;42298;53.638;9.876;2023-03-25T09:16:32;99697.31;;;12.82;68.85
56400;BME280;42298;53.638;9.876;2023-03-25T09:18:58;99674.97;;;12.75;68.22
56400;BME280;42298;53.638;9.876;2023-03-25T09:21:23;99682.88;;;12.61;68.07
56400;BME280;42298;53.638;9.876;2023-03-25T09:23:49;99685.28;;;12.63;68.52
56400;BME280;42298;53.638;9.876;2023-03-25T09:26:15;99698.81;;;12.68;67.65
56400;BME280;42298;53.638;9.876;2023-03-25T09:28:40;99678.69;;;12.67;68.63
56400;BME280;42298;53.638;9.876;2023-03-25T09:31:06;99703.19;;;12.81;68.23
56400;BME280;42298;53.638;9.876;2023-03-25T09:33:33;99663.44;;;12.46;66.64
56400;BME280;42298;53.638;9.876;2023-03-25T09:35:58;99691.94;;;12.62;67.73
56400;BME280;42298;53.638;9.876;2023-03-25T09:38:24;99700.00;;;12.55;66.50
56400;BME280;42298;53.638;9.876;2023-03-25T09:40:49;99674.84;;;12.32;67.25
56400;BME280;42298;53.638;9.876;2023-03-25T09:45:57;99686.53;;;12.53;67.18
56400;BME280;42298;53.638;9.876;2023-03-25T09:48:39;99679.78;;;12.39;67.26
56400;BME280;42298;53.638;9.876;2023-03-25T09:51:12;99665.16;;;12.38;68.07
56400;BME280;42298;53.638;9.876;2023-03-25T09:53:53;99691.31;;;12.80;67.70
56400;BME280;42298;53.638;9.876;2023-03-25T09:56:23;99675.09;;;12.79;66.83
56400;BME280;42298;53.638;9.876;2023-03-25T09:59:00;99671.75;;;12.85;66.37
56400;BME280;42298;53.638;9.876;2023-03-25T10:01:50;99695.41;;;12.98;66.03
56400;BME280;42298;53.638;9.876;2023-03-25T10:10:12;99697.56;;;13.17;65.92
56400;BME280;42298;53.638;9.876;2023-03-25T10:21:15;99705.13;;;14.56;63.54
56400;BME280;42298;53.638;9.876;2023-03-25T10:26:42;99714.81;;;15.00;61.58
56400;BME280;42298;53.638;9.876;2023-03-25T10:29:12;99723.06;;;14.97;60.42
56400;BME280;42298;53.638;9.876;2023-03-25T10:31:51;99708.59;;;14.88;60.79
56400;BME280;42298;53.638;9.876;2023-03-25T10:34:21;99715.91;;;14.77;60.40
56400;BME280;42298;53.638;9.876;2023-03-25T10:36:54;99708.22;;;14.70;61.82
56400;BME280;42298;53.638;9.876;2023-03-25T10:39:28;99690.63;;;14.63;60.96
56400;BME280;42298;53.638;9.876;2023-03-25T10:42:19;99687.00;;;14.78;60.92
56400;BME280;42298;53.638;9.876;2023-03-25T10:44:48;99680.59;;;15.12;61.56
56400;BME280;42298;53.638;9.876;2023-03-25T10:47:18;99683.59;;;15.22;58.53
56400;BME280;42298;53.638;9.876;2023-03-25T10:49:45;99699.00;;;15.20;59.41
56400;BME280;42298;53.638;9.876;2023-03-25T10:52:12;99667.78;;;15.04;58.54
56400;BME280;42298;53.638;9.876;2023-03-25T10:54:43;99675.50;;;14.95;58.54
56400;BME280;42298;53.638;9.876;2023-03-25T10:57:23;99683.06;;;14.79;58.66
56400;BME280;42298;53.638;9.876;2023-03-25T10:59:58;99687.06;;;14.62;58.98
56400;BME280;42298;53.638;9.876;2023-03-25T11:02:27;99657.03;;;14.30;59.65
56400;BME280;42298;53.638;9.876;2023-03-25T11:05:02;99681.59;;;14.31;60.87
56400;BME280;42298;53.638;9.876;2023-03-25T11:07:34;99714.91;;;13.88;62.03
56400;BME280;42298;53.638;9.876;2023-03-25T11:12:38;99720.00;;;12.76;65.56
56400;BME280;42298;53.638;9.876;2023-03-25T11:15:12;99735.31;;;12.73;66.42
56400;BME280;42298;53.638;9.876;2023-03-25T11:17:38;99715.69;;;12.51;66.94
56400;BME280;42298;53.638;9.876;2023-03-25T11:20:06;99742.34;;;12.59;66.78
56400;BME280;42298;53.638;9.876;2023-03-25T11:22:45;99722.25;;;12.22;66.06
56400;BME280;42298;53.638;9.876;2023-03-25T11:25:18;99753.19;;;12.40;66.95
56400;BME280;42298;53.638;9.876;2023-03-25T11:27:51;99730.06;;;12.20;67.10
56400;BME280;42298;53.638;9.876;2023-03-25T11:30:20;99750.19;;;12.33;67.71
56400;BME280;42298;53.638;9.876;2023-03-25T11:33:15;99738.13;;;12.37;68.58
56400;BME280;42298;53.638;9.876;2023-03-25T11:35:43;99738.81;;;12.46;69.24
56400;BME280;42298;53.638;9.876;2023-03-25T11:38:18;99719.66;;;12.65;70.91
56400;BME280;42298;53.638;9.876;2023-03-25T11:40:51;99715.91;;;12.97;70.59
56400;BME280;42298;53.638;9.876;2023-03-25T11:43:20;99712.75;;;13.23;72.02
56400;BME280;42298;53.638;9.876;2023-03-25T11:45:47;99712.53;;;13.59;71.09
56400;BME280;42298;53.638;9.876;2023-03-25T11:48:19;99704.91;;;13.84;70.12
56400;BME280;42298;53.638;9.876;2023-03-25T11:50:47;99704.19;;;13.87;66.91
56400;BME280;42298;53.638;9.876;2023-03-25T11:53:17;99700.63;;;14.02;69.74
56400;BME280;42298;53.638;9.876;2023-03-25T11:55:49;99698.56;;;14.30;68.73
56400;BME280;42298;53.638;9.876;2023-03-25T11:58:18;99673.94;;;14.25;66.23
56400;BME280;42298;53.638;9.876;2023-03-25T12:00:49;99686.72;;;14.29;65.38
56400;BME280;42298;53.638;9.876;2023-03-25T12:03:18;99686.84;;;14.21;64.57
56400;BME280;42298;53.638;9.876;2023-03-25T12:06:00;99662.75;;;14.21;65.92
56400;BME280;42298;53.638;9.876;2023-03-25T12:08:29;99683.47;;;14.27;64.06
56400;BME280;42298;53.638;9.876;2023-03-25T12:11:07;99688.91;;;14.39;64.86
56400;BME280;42298;53.638;9.876;2023-03-25T12:13:49;99686.28;;;14.46;64.40
56400;BME280;42298;53.638;9.876;2023-03-25T12:16:26;99681.38;;;14.40;64.77
56400;BME280;42298;53.638;9.876;2023-03-25T12:29:43;99676.38;;;14.45;67.03
56400;BME280;42298;53.638;9.876;2023-03-25T12:43:05;99669.06;;;14.37;64.43
56400;BME280;42298;53.638;9.876;2023-03-25T12:46:04;99662.88;;;14.25;64.59
56400;BME280;42298;53.638;9.876;2023-03-25T12:49:02;99637.78;;;13.87;65.11
56400;BME280;42298;53.638;9.876;2023-03-25T12:51:42;99662.31;;;14.04;65.11
56400;BME280;42298;53.638;9.876;2023-03-25T13:00:00;99661.69;;;13.79;65.04
56400;BME280;42298;53.638;9.876;2023-03-25T13:02:51;99657.94;;;13.72;63.84
56400;BME280;42298;53.638;9.876;2023-03-25T13:05:44;99667.75;;;13.54;63.55
56400;BME280;42298;53.638;9.876;2023-03-25T13:08:24;99643.81;;;13.30;64.87
56400;BME280;42298;53.638;9.876;2023-03-25T13:11:13;99645.56;;;13.22;65.75
56400;BME280;42298;53.638;9.876;2023-03-25T13:13:40;99651.06;;;13.07;65.02
56400;BME280;42298;53.638;9.876;2023-03-25T13:16:10;99647.41;;;13.03;65.41
56400;BME280;42298;53.638;9.876;2023-03-25T13:18:43;99643.59;;;13.07;66.15
56400;BME280;42298;53.638;9.876;2023-03-25T13:23:48;99672.63;;;13.29;66.98
56400;BME280;42298;53.638;9.876;2023-03-25T13:26:20;99673.22;;;13.22;66.90
56400;BME280;42298;53.638;9.876;2023-03-25T13:28:52;99662.81;;;13.04;68.28
56400;BME280;42298;53.638;9.876;2023-03-25T13:31:25;99713.19;;;13.25;68.07
56400;BME280;42298;53.638;9.876;2023-03-25T13:34:08;99703.44;;;13.15;66.31
56400;BME280;42298;53.638;9.876;2023-03-25T13:36:44;99675.06;;;12.91;67.33
56400;BME280;42298;53.638;9.876;2023-03-25T13:39:16;99685.63;;;13.28;68.43
56400;BME280;42298;53.638;9.876;2023-03-25T13:41:51;99677.22;;;13.53;70.07
56400;BME280;42298;53.638;9.876;2023-03-25T13:44:32;99669.09;;;13.91;69.70
56400;BME280;42298;53.638;9.876;2023-03-25T13:47:04;99685.78;;;14.25;68.83
56400;BME280;42298;53.638;9.876;2023-03-25T13:49:40;99674.91;;;14.32;67.03
56400;BME280;42298;53.638;9.876;2023-03-25T13:52:07;99685.13;;;14.47;66.38
56400;BME280;42298;53.638;9.876;2023-03-25T13:54:36;99690.41;;;14.52;65.36
56400;BME280;42298;53.638;9.876;2023-03-25T14:02:38;99680.09;;;14.34;63.97
56400;BME280;42298;53.638;9.876;2023-03-25T14:08:13;99667.38;;;14.33;63.32
56400;BME280;42298;53.638;9.876;2023-03-25T14:11:22;99665.88;;;14.20;63.39
56400;BME280;42298;53.638;9.876;2023-03-25T14:13:43;99671.31;;;14.16;64.87
56400;BME280;42298;53.638;9.876;2023-03-25T14:16:14;99682.94;;;14.22;64.91
56400;BME280;42298;53.638;9.876;2023-03-25T14:18:49;99680.53;;;14.20;64.80
56400;BME280;42298;53.638;9.876;2023-03-25T14:24:02;99680.63;;;14.08;64.45
56400;BME280;42298;53.638;9.876;2023-03-25T14:26:31;99670.38;;;13.93;64.81
56400;BME280;42298;53.638;9.876;2023-03-25T14:29:04;99692.78;;;14.04;65.31
56400;BME280;42298;53.638;9.876;2023-03-25T14:31:32;99656.69;;;13.85;65.88
56400;BME280;42298;53.638;9.876;2023-03-25T14:39:09;99680.19;;;13.75;66.90
56400;BME280;42298;53.638;9.876;2023-03-25T14:41:54;99675.09;;;13.62;67.85
56400;BME280;42298;53.638;9.876;2023-03-25T14:44:21;99674.38;;;13.65;68.48
56400;BME280;42298;53.638;9.876;2023-03-25T14:46:46;99648.38;;;13.54;68.19
56400;BME280;42298;53.638;9.876;2023-03-25T14:49:21;99653.84;;;13.66;67.25
56400;BME280;42298;53.638;9.876;2023-03-25T14:51:55;99654.91;;;13.61;67.36
56400;BME280;42298;53.638;9.876;2023-03-25T14:54:33;99673.75;;;13.56;66.84
56400;BME280;42298;53.638;9.876;2023-03-25T14:57:29;99660.69;;;13.40;67.75